Archival Weather

Chicago O'Hare International

Chicago, Illinois (KORD)

Report from: Tuesday, August 16, 2022 1:51 AM CDT
Current time: Sunday, February 25, 2024 4:21 PM CST

Current weather – Weather history – Daily summaries
Weather forecast

Temperature17.8°C (64.0°F)
Dew point16.1°C (61.0°F)
Winds 5 kts (2.6 m/s, 5.8 mph) North (360°)
Visibility10 mi. (16.1 km)
Clouds Few clouds 25,000 ft. (7,620 m)
Altimeter30.06 in.Hg (1018 mB)
Relative humidity90 %
Density altitude434 ft. (132 m)
Sea-level pressure101.8 kPa (1018 mB, 30.05 in.Hg)
Remarks Automated weather observing station with precipitation discriminator
Flight conditions Visual Meteorological Conditions
Raw dataKORD 160651Z 36005KT 10SM FEW250 18/16 A3006 RMK AO2 SLP176 T01780161
An error has occurred. This application may no longer respond until reloaded. Reload 🗙